sensor_id;sensor_type;location;lat;lon;timestamp;temperature;humidity
43627;DHT22;29217;52.586;13.442;2022-08-21T00:01:14;19.20;99.90
43627;DHT22;29217;52.586;13.442;2022-08-21T00:03:40;19.20;99.90
43627;DHT22;29217;52.586;13.442;2022-08-21T00:06:06;19.20;99.90
43627;DHT22;29217;52.586;13.442;2022-08-21T00:08:32;19.10;99.90
43627;DHT22;29217;52.586;13.442;2022-08-21T00:10:57;19.10;99.90
43627;DHT22;29217;52.586;13.442;2022-08-21T00:13:23;19.10;99.90
43627;DHT22;29217;52.586;13.442;2022-08-21T00:15:49;19.00;99.90
43627;DHT22;29217;52.586;13.442;2022-08-21T00:18:16;19.00;99.90
43627;DHT22;29217;52.586;13.442;2022-08-21T00:20:43;19.10;99.90
43627;DHT22;29217;52.586;13.442;2022-08-21T00:23:10;19.10;99.90
43627;DHT22;29217;52.586;13.442;2022-08-21T00:25:37;19.10;99.90
43627;DHT22;29217;52.586;13.442;2022-08-21T00:28:03;19.00;99.90
43627;DHT22;29217;52.586;13.442;2022-08-21T00:30:29;19.00;99.90
43627;DHT22;29217;52.586;13.442;2022-08-21T00:32:56;19.10;99.90
43627;DHT22;29217;52.586;13.442;2022-08-21T00:35:27;19.00;99.90
43627;DHT22;29217;52.586;13.442;2022-08-21T00:37:53;19.00;99.90
43627;DHT22;29217;52.586;13.442;2022-08-21T00:40:24;19.00;99.90
43627;DHT22;29217;52.586;13.442;2022-08-21T00:42:51;19.00;99.90
43627;DHT22;29217;52.586;13.442;2022-08-21T00:45:16;19.00;99.90
43627;DHT22;29217;52.586;13.442;2022-08-21T00:47:42;19.00;99.90
43627;DHT22;29217;52.586;13.442;2022-08-21T00:50:11;19.00;99.90
43627;DHT22;29217;52.586;13.442;2022-08-21T00:52:37;18.90;99.90
43627;DHT22;29217;52.586;13.442;2022-08-21T00:55:07;19.00;99.90
43627;DHT22;29217;52.586;13.442;2022-08-21T00:57:38;18.90;99.90
43627;DHT22;29217;52.586;13.442;2022-08-21T01:00:07;18.90;99.90
43627;DHT22;29217;52.586;13.442;2022-08-21T01:02:34;18.90;99.90
43627;DHT22;29217;52.586;13.442;2022-08-21T01:05:00;18.90;99.90
43627;DHT22;29217;52.586;13.442;2022-08-21T01:07:25;18.90;99.90
43627;DHT22;29217;52.586;13.442;2022-08-21T01:09:51;18.90;99.90
43627;DHT22;29217;52.586;13.442;2022-08-21T01:12:17;18.80;99.90
43627;DHT22;29217;52.586;13.442;2022-08-21T01:14:43;18.80;99.90
43627;DHT22;29217;52.586;13.442;2022-08-21T01:17:11;18.80;99.90
43627;DHT22;29217;52.586;13.442;2022-08-21T01:19:38;18.80;99.90
43627;DHT22;29217;52.586;13.442;2022-08-21T01:22:03;18.80;99.90
43627;DHT22;29217;52.586;13.442;2022-08-21T01:24:29;18.70;99.90
43627;DHT22;29217;52.586;13.442;2022-08-21T01:26:58;18.70;99.90
43627;DHT22;29217;52.586;13.442;2022-08-21T01:29:44;18.70;99.90
43627;DHT22;29217;52.586;13.442;2022-08-21T01:32:14;18.60;99.90
43627;DHT22;29217;52.586;13.442;2022-08-21T01:34:42;18.60;99.90
43627;DHT22;29217;52.586;13.442;2022-08-21T01:37:09;18.60;99.90
43627;DHT22;29217;52.586;13.442;2022-08-21T01:39:35;18.60;99.90
43627;DHT22;29217;52.586;13.442;2022-08-21T01:42:01;18.60;99.90
43627;DHT22;29217;52.586;13.442;2022-08-21T01:44:27;18.50;99.90
43627;DHT22;29217;52.586;13.442;2022-08-21T01:46:54;18.50;99.90
43627;DHT22;29217;52.586;13.442;2022-08-21T01:49:20;18.40;99.90
43627;DHT22;29217;52.586;13.442;2022-08-21T01:51:46;18.40;99.90
43627;DHT22;29217;52.586;13.442;2022-08-21T01:54:12;18.40;99.90
43627;DHT22;29217;52.586;13.442;2022-08-21T01:56:47;18.40;99.90
43627;DHT22;29217;52.586;13.442;2022-08-21T01:59:14;18.40;99.90
43627;DHT22;29217;52.586;13.442;2022-08-21T02:01:40;18.40;99.90
43627;DHT22;29217;52.586;13.442;2022-08-21T02:04:06;18.30;99.90
43627;DHT22;29217;52.586;13.442;2022-08-21T02:06:32;18.20;99.90
43627;DHT22;29217;52.586;13.442;2022-08-21T02:08:58;18.30;99.90
43627;DHT22;29217;52.586;13.442;2022-08-21T02:11:24;18.30;99.90
43627;DHT22;29217;52.586;13.442;2022-08-21T02:13:49;18.20;99.90
43627;DHT22;29217;52.586;13.442;2022-08-21T02:16:15;18.20;99.90
43627;DHT22;29217;52.586;13.442;2022-08-21T02:18:41;18.10;99.90
43627;DHT22;29217;52.586;13.442;2022-08-21T02:21:07;18.20;99.90
43627;DHT22;29217;52.586;13.442;2022-08-21T02:23:32;18.10;99.90
43627;DHT22;29217;52.586;13.442;2022-08-21T02:25:59;18.10;99.90
43627;DHT22;29217;52.586;13.442;2022-08-21T02:28:26;18.10;99.90
43627;DHT22;29217;52.586;13.442;2022-08-21T02:30:53;18.10;99.90
43627;DHT22;29217;52.586;13.442;2022-08-21T02:33:19;18.10;99.90
43627;DHT22;29217;52.586;13.442;2022-08-21T02:35:46;18.00;99.90
43627;DHT22;29217;52.586;13.442;2022-08-21T02:38:18;18.00;99.90
43627;DHT22;29217;52.586;13.442;2022-08-21T02:40:47;18.00;99.90
43627;DHT22;29217;52.586;13.442;2022-08-21T02:43:14;18.00;99.90
43627;DHT22;29217;52.586;13.442;2022-08-21T02:45:40;17.90;99.90
43627;DHT22;29217;52.586;13.442;2022-08-21T02:48:12;17.90;99.90
43627;DHT22;29217;52.586;13.442;2022-08-21T02:50:43;17.90;99.90
43627;DHT22;29217;52.586;13.442;2022-08-21T02:53:12;17.90;99.90
43627;DHT22;29217;52.586;13.442;2022-08-21T02:55:46;17.80;99.90
43627;DHT22;29217;52.586;13.442;2022-08-21T02:58:13;17.80;99.90
43627;DHT22;29217;52.586;13.442;2022-08-21T03:00:40;17.80;99.90
43627;DHT22;29217;52.586;13.442;2022-08-21T03:03:06;17.80;99.90
43627;DHT22;29217;52.586;13.442;2022-08-21T03:05:33;17.70;99.90
43627;DHT22;29217;52.586;13.442;2022-08-21T03:08:01;17.70;99.90
43627;DHT22;29217;52.586;13.442;2022-08-21T03:10:27;17.80;99.90
43627;DHT22;29217;52.586;13.442;2022-08-21T03:12:53;17.70;99.90
43627;DHT22;29217;52.586;13.442;2022-08-21T03:15:21;17.70;99.90
43627;DHT22;29217;52.586;13.442;2022-08-21T03:17:49;17.60;99.90
43627;DHT22;29217;52.586;13.442;2022-08-21T03:20:18;17.60;99.90
43627;DHT22;29217;52.586;13.442;2022-08-21T03:22:44;17.60;99.90
43627;DHT22;29217;52.586;13.442;2022-08-21T03:25:09;17.50;99.90
43627;DHT22;29217;52.586;13.442;2022-08-21T03:27:36;17.50;99.90
43627;DHT22;29217;52.586;13.442;2022-08-21T03:30:04;17.50;99.90
43627;DHT22;29217;52.586;13.442;2022-08-21T03:32:30;17.40;99.90
43627;DHT22;29217;52.586;13.442;2022-08-21T03:34:57;17.40;99.90
43627;DHT22;29217;52.586;13.442;2022-08-21T03:37:24;17.40;99.90
43627;DHT22;29217;52.586;13.442;2022-08-21T03:39:50;17.30;99.90
43627;DHT22;29217;52.586;13.442;2022-08-21T03:42:16;17.30;99.90
43627;DHT22;29217;52.586;13.442;2022-08-21T03:44:41;17.30;99.90
43627;DHT22;29217;52.586;13.442;2022-08-21T03:47:07;17.30;99.90
43627;DHT22;29217;52.586;13.442;2022-08-21T03:49:33;17.20;99.90
43627;DHT22;29217;52.586;13.442;2022-08-21T03:52:00;17.10;99.90
43627;DHT22;29217;52.586;13.442;2022-08-21T03:54:25;17.10;99.90
43627;DHT22;29217;52.586;13.442;2022-08-21T03:56:51;17.10;99.90
43627;DHT22;29217;52.586;13.442;2022-08-21T03:59:17;17.10;99.90
43627;DHT22;29217;52.586;13.442;2022-08-21T04:01:59;17.00;99.90
43627;DHT22;29217;52.586;13.442;2022-08-21T04:04:25;17.00;99.90
43627;DHT22;29217;52.586;13.442;2022-08-21T04:06:51;17.00;99.90
43627;DHT22;29217;52.586;13.442;2022-08-21T04:09:18;17.00;99.90
43627;DHT22;29217;52.586;13.442;2022-08-21T04:11:44;16.90;99.90
43627;DHT22;29217;52.586;13.442;2022-08-21T04:14:10;16.90;99.90
43627;DHT22;29217;52.586;13.442;2022-08-21T04:16:36;16.90;99.90
43627;DHT22;29217;52.586;13.442;2022-08-21T04:19:02;16.90;99.90
43627;DHT22;29217;52.586;13.442;2022-08-21T04:21:27;16.90;99.90
43627;DHT22;29217;52.586;13.442;2022-08-21T04:23:56;16.90;99.90
43627;DHT22;29217;52.586;13.442;2022-08-21T04:26:22;16.90;99.90
43627;DHT22;29217;52.586;13.442;2022-08-21T04:28:48;16.90;99.90
43627;DHT22;29217;52.586;13.442;2022-08-21T04:31:13;16.90;99.90
43627;DHT22;29217;52.586;13.442;2022-08-21T04:33:39;17.00;99.90
43627;DHT22;29217;52.586;13.442;2022-08-21T04:36:05;17.00;99.90
43627;DHT22;29217;52.586;13.442;2022-08-21T04:38:32;16.90;99.90
43627;DHT22;29217;52.586;13.442;2022-08-21T04:40:58;17.00;99.90
43627;DHT22;29217;52.586;13.442;2022-08-21T04:43:24;17.00;99.90
43627;DHT22;29217;52.586;13.442;2022-08-21T04:45:50;17.00;99.90
43627;DHT22;29217;52.586;13.442;2022-08-21T04:48:18;17.00;99.90
43627;DHT22;29217;52.586;13.442;2022-08-21T04:50:55;17.00;99.90
43627;DHT22;29217;52.586;13.442;2022-08-21T04:55:54;17.10;99.90
43627;DHT22;29217;52.586;13.442;2022-08-21T04:58:22;17.10;99.90
43627;DHT22;29217;52.586;13.442;2022-08-21T05:00:52;17.00;99.90
43627;DHT22;29217;52.586;13.442;2022-08-21T05:03:18;17.10;99.90
43627;DHT22;29217;52.586;13.442;2022-08-21T05:05:44;17.10;99.90
43627;DHT22;29217;52.586;13.442;2022-08-21T05:08:12;17.10;99.90
43627;DHT22;29217;52.586;13.442;2022-08-21T05:10:40;17.10;99.90
43627;DHT22;29217;52.586;13.442;2022-08-21T05:13:06;17.00;99.90
43627;DHT22;29217;52.586;13.442;2022-08-21T05:15:32;17.10;99.90
43627;DHT22;29217;52.586;13.442;2022-08-21T05:17:57;17.10;99.90
43627;DHT22;29217;52.586;13.442;2022-08-21T05:20:23;17.10;99.90
43627;DHT22;29217;52.586;13.442;2022-08-21T05:22:49;17.10;99.90
43627;DHT22;29217;52.586;13.442;2022-08-21T05:25:15;17.10;99.90
43627;DHT22;29217;52.586;13.442;2022-08-21T05:27:41;17.10;99.90
43627;DHT22;29217;52.586;13.442;2022-08-21T05:30:08;17.10;99.90
43627;DHT22;29217;52.586;13.442;2022-08-21T05:32:35;17.10;99.90
43627;DHT22;29217;52.586;13.442;2022-08-21T05:35:02;17.10;99.90
43627;DHT22;29217;52.586;13.442;2022-08-21T05:37:28;17.10;99.90
43627;DHT22;29217;52.586;13.442;2022-08-21T05:39:54;17.20;99.90
43627;DHT22;29217;52.586;13.442;2022-08-21T05:42:19;17.20;99.90
43627;DHT22;29217;52.586;13.442;2022-08-21T05:44:45;17.20;99.90
43627;DHT22;29217;52.586;13.442;2022-08-21T05:47:11;17.20;99.90
43627;DHT22;29217;52.586;13.442;2022-08-21T05:49:37;17.30;99.90
43627;DHT22;29217;52.586;13.442;2022-08-21T05:52:03;17.30;99.90
43627;DHT22;29217;52.586;13.442;2022-08-21T05:54:30;17.30;99.90
43627;DHT22;29217;52.586;13.442;2022-08-21T05:56:56;17.20;99.90
43627;DHT22;29217;52.586;13.442;2022-08-21T05:59:22;17.30;99.90
43627;DHT22;29217;52.586;13.442;2022-08-21T06:01:48;17.30;99.90
43627;DHT22;29217;52.586;13.442;2022-08-21T06:04:13;17.30;99.90
43627;DHT22;29217;52.586;13.442;2022-08-21T06:06:39;17.30;99.90
43627;DHT22;29217;52.586;13.442;2022-08-21T06:09:05;17.40;99.90
43627;DHT22;29217;52.586;13.442;2022-08-21T06:11:32;17.40;99.90
43627;DHT22;29217;52.586;13.442;2022-08-21T06:13:58;17.50;99.90
43627;DHT22;29217;52.586;13.442;2022-08-21T06:16:23;17.50;99.90
43627;DHT22;29217;52.586;13.442;2022-08-21T06:18:49;17.50;99.90
43627;DHT22;29217;52.586;13.442;2022-08-21T06:21:15;17.40;99.90
43627;DHT22;29217;52.586;13.442;2022-08-21T06:23:42;17.50;99.90
43627;DHT22;29217;52.586;13.442;2022-08-21T06:26:08;17.50;99.90
43627;DHT22;29217;52.586;13.442;2022-08-21T06:28:35;17.50;99.90
43627;DHT22;29217;52.586;13.442;2022-08-21T06:31:14;17.60;99.90
43627;DHT22;29217;52.586;13.442;2022-08-21T06:33:40;17.60;99.90
43627;DHT22;29217;52.586;13.442;2022-08-21T06:36:06;17.70;99.90
43627;DHT22;29217;52.586;13.442;2022-08-21T06:38:32;17.70;99.90
43627;DHT22;29217;52.586;13.442;2022-08-21T06:40:57;17.80;99.90
43627;DHT22;29217;52.586;13.442;2022-08-21T06:43:23;17.80;99.90
43627;DHT22;29217;52.586;13.442;2022-08-21T06:45:49;17.80;99.90
43627;DHT22;29217;52.586;13.442;2022-08-21T06:48:14;17.80;99.90
43627;DHT22;29217;52.586;13.442;2022-08-21T06:50:40;17.80;99.90
43627;DHT22;29217;52.586;13.442;2022-08-21T06:53:09;17.90;99.90
43627;DHT22;29217;52.586;13.442;2022-08-21T06:55:36;18.00;99.90
43627;DHT22;29217;52.586;13.442;2022-08-21T06:58:02;18.00;99.90
43627;DHT22;29217;52.586;13.442;2022-08-21T07:00:28;18.10;99.90
43627;DHT22;29217;52.586;13.442;2022-08-21T07:02:54;18.10;99.90
43627;DHT22;29217;52.586;13.442;2022-08-21T07:05:19;18.20;99.90
43627;DHT22;29217;52.586;13.442;2022-08-21T07:07:47;18.20;99.90
43627;DHT22;29217;52.586;13.442;2022-08-21T07:10:14;18.30;99.90
43627;DHT22;29217;52.586;13.442;2022-08-21T07:12:40;18.40;99.90
43627;DHT22;29217;52.586;13.442;2022-08-21T07:15:07;18.40;99.90
43627;DHT22;29217;52.586;13.442;2022-08-21T07:17:32;18.50;99.90
43627;DHT22;29217;52.586;13.442;2022-08-21T07:19:58;18.50;99.90
43627;DHT22;29217;52.586;13.442;2022-08-21T07:22:24;18.60;99.90
43627;DHT22;29217;52.586;13.442;2022-08-21T07:24:49;18.70;99.90
43627;DHT22;29217;52.586;13.442;2022-08-21T07:27:15;18.70;99.90
43627;DHT22;29217;52.586;13.442;2022-08-21T07:29:41;18.80;99.90
43627;DHT22;29217;52.586;13.442;2022-08-21T07:32:06;18.90;99.90
43627;DHT22;29217;52.586;13.442;2022-08-21T07:34:32;19.00;99.90
43627;DHT22;29217;52.586;13.442;2022-08-21T07:36:58;19.00;99.90
43627;DHT22;29217;52.586;13.442;2022-08-21T07:39:24;19.10;99.90
43627;DHT22;29217;52.586;13.442;2022-08-21T07:41:49;19.20;99.90
43627;DHT22;29217;52.586;13.442;2022-08-21T07:44:15;19.20;99.90
43627;DHT22;29217;52.586;13.442;2022-08-21T07:46:40;19.30;99.90
43627;DHT22;29217;52.586;13.442;2022-08-21T07:49:06;19.30;99.90
43627;DHT22;29217;52.586;13.442;2022-08-21T07:51:32;19.40;99.90
43627;DHT22;29217;52.586;13.442;2022-08-21T07:53:59;19.40;99.90
43627;DHT22;29217;52.586;13.442;2022-08-21T07:56:26;19.50;99.90
43627;DHT22;29217;52.586;13.442;2022-08-21T07:58:52;19.60;99.90
43627;DHT22;29217;52.586;13.442;2022-08-21T08:01:18;19.70;99.90
43627;DHT22;29217;52.586;13.442;2022-08-21T08:03:44;19.70;99.90
43627;DHT22;29217;52.586;13.442;2022-08-21T08:06:10;19.80;99.90
43627;DHT22;29217;52.586;13.442;2022-08-21T08:08:38;19.80;99.90
43627;DHT22;29217;52.586;13.442;2022-08-21T08:11:04;19.90;99.90
43627;DHT22;29217;52.586;13.442;2022-08-21T08:13:30;19.90;99.90
43627;DHT22;29217;52.586;13.442;2022-08-21T08:15:56;20.00;99.90
43627;DHT22;29217;52.586;13.442;2022-08-21T08:18:22;20.00;99.90
43627;DHT22;29217;52.586;13.442;2022-08-21T08:20:47;20.10;99.90
43627;DHT22;29217;52.586;13.442;2022-08-21T08:23:14;20.20;99.90
43627;DHT22;29217;52.586;13.442;2022-08-21T08:25:39;20.20;99.90
43627;DHT22;29217;52.586;13.442;2022-08-21T08:28:07;20.30;99.90
43627;DHT22;29217;52.586;13.442;2022-08-21T08:30:33;20.40;99.90
43627;DHT22;29217;52.586;13.442;2022-08-21T08:32:58;20.50;99.90
43627;DHT22;29217;52.586;13.442;2022-08-21T08:35:25;20.60;99.90
43627;DHT22;29217;52.586;13.442;2022-08-21T08:37:51;20.60;99.90
43627;DHT22;29217;52.586;13.442;2022-08-21T08:42:55;20.80;99.90
43627;DHT22;29217;52.586;13.442;2022-08-21T08:45:21;20.90;99.90
43627;DHT22;29217;52.586;13.442;2022-08-21T08:47:56;20.90;99.90
43627;DHT22;29217;52.586;13.442;2022-08-21T08:50:49;20.90;99.90
43627;DHT22;29217;52.586;13.442;2022-08-21T08:53:22;20.90;99.90
43627;DHT22;29217;52.586;13.442;2022-08-21T08:55:51;21.00;99.90
43627;DHT22;29217;52.586;13.442;2022-08-21T08:58:43;21.00;99.90
43627;DHT22;29217;52.586;13.442;2022-08-21T09:01:20;21.00;99.90
43627;DHT22;29217;52.586;13.442;2022-08-21T09:03:46;21.00;99.90
43627;DHT22;29217;52.586;13.442;2022-08-21T09:06:54;21.00;99.90
43627;DHT22;29217;52.586;13.442;2022-08-21T09:12:25;21.10;99.90
43627;DHT22;29217;52.586;13.442;2022-08-21T09:20:47;21.20;99.90
43627;DHT22;29217;52.586;13.442;2022-08-21T09:26:18;21.20;99.90
43627;DHT22;29217;52.586;13.442;2022-08-21T09:28:45;21.10;99.90
43627;DHT22;29217;52.586;13.442;2022-08-21T09:31:34;21.10;99.90
43627;DHT22;29217;52.586;13.442;2022-08-21T09:34:06;21.10;99.90
43627;DHT22;29217;52.586;13.442;2022-08-21T09:38:59;21.20;99.90
43627;DHT22;29217;52.586;13.442;2022-08-21T09:41:30;21.30;99.90
43627;DHT22;29217;52.586;13.442;2022-08-21T09:43:57;21.30;99.90
43627;DHT22;29217;52.586;13.442;2022-08-21T09:46:25;21.40;99.90
43627;DHT22;29217;52.586;13.442;2022-08-21T09:48:53;21.40;99.90
43627;DHT22;29217;52.586;13.442;2022-08-21T09:51:24;21.40;99.90
43627;DHT22;29217;52.586;13.442;2022-08-21T09:53:57;21.40;99.90
43627;DHT22;29217;52.586;13.442;2022-08-21T09:56:33;21.40;99.90
43627;DHT22;29217;52.586;13.442;2022-08-21T09:59:27;21.50;99.90
43627;DHT22;29217;52.586;13.442;2022-08-21T10:01:56;21.50;99.90
43627;DHT22;29217;52.586;13.442;2022-08-21T10:04:27;21.60;99.90
43627;DHT22;29217;52.586;13.442;2022-08-21T10:06:53;21.60;99.90
43627;DHT22;29217;52.586;13.442;2022-08-21T10:09:21;21.70;99.90
43627;DHT22;29217;52.586;13.442;2022-08-21T10:11:53;21.90;99.90
43627;DHT22;29217;52.586;13.442;2022-08-21T10:14:49;22.00;99.90
43627;DHT22;29217;52.586;13.442;2022-08-21T10:20:04;22.10;99.90
43627;DHT22;29217;52.586;13.442;2022-08-21T10:26:22;22.30;99.90
43627;DHT22;29217;52.586;13.442;2022-08-21T10:30:56;22.20;99.90
43627;DHT22;29217;52.586;13.442;2022-08-21T10:36:14;22.20;99.90
43627;DHT22;29217;52.586;13.442;2022-08-21T10:39:09;22.20;99.90
43627;DHT22;29217;52.586;13.442;2022-08-21T10:47:38;22.30;99.90
43627;DHT22;29217;52.586;13.442;2022-08-21T10:58:37;22.60;99.90
43627;DHT22;29217;52.586;13.442;2022-08-21T11:01:18;22.80;99.90
43627;DHT22;29217;52.586;13.442;2022-08-21T11:03:52;22.80;99.90
43627;DHT22;29217;52.586;13.442;2022-08-21T11:06:25;22.80;99.90
43627;DHT22;29217;52.586;13.442;2022-08-21T11:09:02;22.90;99.90
43627;DHT22;29217;52.586;13.442;2022-08-21T11:11:32;22.90;99.90
43627;DHT22;29217;52.586;13.442;2022-08-21T11:16:50;22.90;99.90
43627;DHT22;29217;52.586;13.442;2022-08-21T11:19:28;23.10;99.90
43627;DHT22;29217;52.586;13.442;2022-08-21T11:22:00;23.20;99.90
43627;DHT22;29217;52.586;13.442;2022-08-21T11:29:56;24.20;99.90
43627;DHT22;29217;52.586;13.442;2022-08-21T11:32:53;24.50;99.90
43627;DHT22;29217;52.586;13.442;2022-08-21T11:35:43;24.50;99.90
43627;DHT22;29217;52.586;13.442;2022-08-21T11:38:28;24.70;99.90
43627;DHT22;29217;52.586;13.442;2022-08-21T11:54:57;26.20;99.90
43627;DHT22;29217;52.586;13.442;2022-08-21T11:57:34;26.80;99.90
43627;DHT22;29217;52.586;13.442;2022-08-21T12:00:06;27.10;99.90
43627;DHT22;29217;52.586;13.442;2022-08-21T12:02:38;27.40;99.90
43627;DHT22;29217;52.586;13.442;2022-08-21T12:05:08;27.90;99.90
43627;DHT22;29217;52.586;13.442;2022-08-21T12:07:43;28.40;99.90
43627;DHT22;29217;52.586;13.442;2022-08-21T12:10:16;28.80;99.90
43627;DHT22;29217;52.586;13.442;2022-08-21T12:12:44;28.80;99.90
43627;DHT22;29217;52.586;13.442;2022-08-21T12:18:00;28.60;99.90
43627;DHT22;29217;52.586;13.442;2022-08-21T12:23:16;28.40;99.90
43627;DHT22;29217;52.586;13.442;2022-08-21T12:25:47;28.30;99.90
43627;DHT22;29217;52.586;13.442;2022-08-21T12:28:21;28.20;99.90
43627;DHT22;29217;52.586;13.442;2022-08-21T12:30:47;28.30;99.90
43627;DHT22;29217;52.586;13.442;2022-08-21T12:35:53;28.50;99.90
43627;DHT22;29217;52.586;13.442;2022-08-21T12:41:32;28.50;99.90
43627;DHT22;29217;52.586;13.442;2022-08-21T12:44:05;29.00;99.90
43627;DHT22;29217;52.586;13.442;2022-08-21T12:47:13;29.00;99.90
43627;DHT22;29217;52.586;13.442;2022-08-21T12:50:02;28.90;99.90
43627;DHT22;29217;52.586;13.442;2022-08-21T12:52:35;28.40;99.90
43627;DHT22;29217;52.586;13.442;2022-08-21T12:55:03;28.10;99.90
43627;DHT22;29217;52.586;13.442;2022-08-21T12:57:30;28.00;99.90
43627;DHT22;29217;52.586;13.442;2022-08-21T12:59:58;27.70;99.90
43627;DHT22;29217;52.586;13.442;2022-08-21T13:02:36;27.60;99.90
43627;DHT22;29217;52.586;13.442;2022-08-21T13:05:06;27.60;99.90
43627;DHT22;29217;52.586;13.442;2022-08-21T13:07:35;27.60;99.90
43627;DHT22;29217;52.586;13.442;2022-08-21T13:10:19;27.60;99.90
43627;DHT22;29217;52.586;13.442;2022-08-21T13:12:46;27.60;99.90
43627;DHT22;29217;52.586;13.442;2022-08-21T13:15:12;27.60;99.90
43627;DHT22;29217;52.586;13.442;2022-08-21T13:17:42;27.60;99.90
43627;DHT22;29217;52.586;13.442;2022-08-21T13:20:29;27.50;99.90
43627;DHT22;29217;52.586;13.442;2022-08-21T13:22:55;27.40;99.90
43627;DHT22;29217;52.586;13.442;2022-08-21T13:25:24;27.60;99.90
43627;DHT22;29217;52.586;13.442;2022-08-21T13:28:20;27.70;99.90
43627;DHT22;29217;52.586;13.442;2022-08-21T13:30:49;27.80;99.90
43627;DHT22;29217;52.586;13.442;2022-08-21T13:33:17;27.80;99.90
43627;DHT22;29217;52.586;13.442;2022-08-21T13:35:59;28.10;99.90
43627;DHT22;29217;52.586;13.442;2022-08-21T13:38:31;28.40;99.90
43627;DHT22;29217;52.586;13.442;2022-08-21T13:43:45;28.20;99.90
43627;DHT22;29217;52.586;13.442;2022-08-21T13:46:13;28.30;99.90
43627;DHT22;29217;52.586;13.442;2022-08-21T13:48:41;28.00;99.90
43627;DHT22;29217;52.586;13.442;2022-08-21T13:51:08;27.60;99.90
43627;DHT22;29217;52.586;13.442;2022-08-21T13:53:47;27.50;99.90
43627;DHT22;29217;52.586;13.442;2022-08-21T13:56:42;27.70;99.90
43627;DHT22;29217;52.586;13.442;2022-08-21T13:59:08;27.80;99.90
43627;DHT22;29217;52.586;13.442;2022-08-21T14:02:16;27.40;99.90
43627;DHT22;29217;52.586;13.442;2022-08-21T14:04:36;27.10;99.90
43627;DHT22;29217;52.586;13.442;2022-08-21T14:07:19;26.60;99.90
43627;DHT22;29217;52.586;13.442;2022-08-21T14:09:45;26.20;99.90
43627;DHT22;29217;52.586;13.442;2022-08-21T14:12:33;25.90;99.90
43627;DHT22;29217;52.586;13.442;2022-08-21T14:15:04;25.50;99.90
43627;DHT22;29217;52.586;13.442;2022-08-21T14:17:37;25.50;99.90
43627;DHT22;29217;52.586;13.442;2022-08-21T14:20:09;25.90;99.90
43627;DHT22;29217;52.586;13.442;2022-08-21T14:22:41;26.70;99.90
43627;DHT22;29217;52.586;13.442;2022-08-21T14:25:26;27.10;99.90
43627;DHT22;29217;52.586;13.442;2022-08-21T14:28:37;27.30;99.90
43627;DHT22;29217;52.586;13.442;2022-08-21T14:30:43;27.60;99.90
43627;DHT22;29217;52.586;13.442;2022-08-21T14:33:12;28.00;99.90
43627;DHT22;29217;52.586;13.442;2022-08-21T14:35:39;28.10;99.90
43627;DHT22;29217;52.586;13.442;2022-08-21T14:38:15;28.20;99.90
43627;DHT22;29217;52.586;13.442;2022-08-21T14:40:42;28.30;99.90
43627;DHT22;29217;52.586;13.442;2022-08-21T14:43:08;28.60;99.90
43627;DHT22;29217;52.586;13.442;2022-08-21T14:45:34;28.60;99.90
43627;DHT22;29217;52.586;13.442;2022-08-21T14:48:02;28.30;99.90
43627;DHT22;29217;52.586;13.442;2022-08-21T14:50:27;27.90;99.90
43627;DHT22;29217;52.586;13.442;2022-08-21T14:52:53;27.80;99.90
43627;DHT22;29217;52.586;13.442;2022-08-21T14:55:19;27.40;99.90
43627;DHT22;29217;52.586;13.442;2022-08-21T14:57:47;27.00;99.90
43627;DHT22;29217;52.586;13.442;2022-08-21T15:00:16;26.70;99.90
43627;DHT22;29217;52.586;13.442;2022-08-21T15:02:42;26.30;99.90
43627;DHT22;29217;52.586;13.442;2022-08-21T15:05:08;26.10;99.90
43627;DHT22;29217;52.586;13.442;2022-08-21T15:07:34;25.80;99.90
43627;DHT22;29217;52.586;13.442;2022-08-21T15:09:59;25.50;99.90
43627;DHT22;29217;52.586;13.442;2022-08-21T15:12:25;25.40;99.90
43627;DHT22;29217;52.586;13.442;2022-08-21T15:14:51;25.10;99.90
43627;DHT22;29217;52.586;13.442;2022-08-21T15:17:18;25.00;99.90
43627;DHT22;29217;52.586;13.442;2022-08-21T15:19:43;24.70;99.90
43627;DHT22;29217;52.586;13.442;2022-08-21T15:22:09;24.60;99.90
43627;DHT22;29217;52.586;13.442;2022-08-21T15:24:35;24.60;99.90
43627;DHT22;29217;52.586;13.442;2022-08-21T15:27:02;24.60;99.90
43627;DHT22;29217;52.586;13.442;2022-08-21T15:29:30;24.50;99.90
43627;DHT22;29217;52.586;13.442;2022-08-21T15:31:58;24.50;99.90
43627;DHT22;29217;52.586;13.442;2022-08-21T15:34:26;24.30;99.90
43627;DHT22;29217;52.586;13.442;2022-08-21T15:36:52;24.30;99.90
43627;DHT22;29217;52.586;13.442;2022-08-21T15:39:18;24.20;99.90
43627;DHT22;29217;52.586;13.442;2022-08-21T15:41:44;24.20;99.90
43627;DHT22;29217;52.586;13.442;2022-08-21T15:44:11;24.20;99.90
43627;DHT22;29217;52.586;13.442;2022-08-21T15:46:38;24.10;99.90
43627;DHT22;29217;52.586;13.442;2022-08-21T15:49:03;24.10;99.90
43627;DHT22;29217;52.586;13.442;2022-08-21T15:51:29;24.10;99.90
43627;DHT22;29217;52.586;13.442;2022-08-21T15:53:55;24.10;99.90
43627;DHT22;29217;52.586;13.442;2022-08-21T15:56:25;24.20;99.90
43627;DHT22;29217;52.586;13.442;2022-08-21T15:58:57;24.20;99.90
43627;DHT22;29217;52.586;13.442;2022-08-21T16:01:23;24.20;99.90
43627;DHT22;29217;52.586;13.442;2022-08-21T16:03:50;24.10;99.90
43627;DHT22;29217;52.586;13.442;2022-08-21T16:06:17;24.00;99.90
43627;DHT22;29217;52.586;13.442;2022-08-21T16:08:43;24.00;99.90
43627;DHT22;29217;52.586;13.442;2022-08-21T16:11:10;23.90;99.90
43627;DHT22;29217;52.586;13.442;2022-08-21T16:13:39;23.90;99.90
43627;DHT22;29217;52.586;13.442;2022-08-21T16:16:09;23.80;99.90
43627;DHT22;29217;52.586;13.442;2022-08-21T16:18:35;23.80;99.90
43627;DHT22;29217;52.586;13.442;2022-08-21T16:21:00;23.80;99.90
43627;DHT22;29217;52.586;13.442;2022-08-21T16:23:26;23.90;99.90
43627;DHT22;29217;52.586;13.442;2022-08-21T16:25:51;23.90;99.90
43627;DHT22;29217;52.586;13.442;2022-08-21T16:28:18;23.90;99.90
43627;DHT22;29217;52.586;13.442;2022-08-21T16:30:47;23.80;99.90
43627;DHT22;29217;52.586;13.442;2022-08-21T16:33:24;23.80;99.90
43627;DHT22;29217;52.586;13.442;2022-08-21T16:35:51;23.70;99.90
43627;DHT22;29217;52.586;13.442;2022-08-21T16:38:17;23.70;99.90
43627;DHT22;29217;52.586;13.442;2022-08-21T16:40:43;23.60;99.90
43627;DHT22;29217;52.586;13.442;2022-08-21T16:43:09;23.50;99.90
43627;DHT22;29217;52.586;13.442;2022-08-21T16:45:35;23.50;99.90
43627;DHT22;29217;52.586;13.442;2022-08-21T16:48:01;23.40;99.90